sensor_id;sensor_type;location;lat;lon;timestamp;temperature;humidity
19340;HTU21D;9804;52.350;6.684;2022-12-18T00:01:57;-1.89;-6.00
19340;HTU21D;9804;52.350;6.684;2022-12-18T00:04:25;-1.98;-6.00
19340;HTU21D;9804;52.350;6.684;2022-12-18T00:06:51;-2.09;-6.00
19340;HTU21D;9804;52.350;6.684;2022-12-18T00:09:17;-2.12;-6.00
19340;HTU21D;9804;52.350;6.684;2022-12-18T00:11:43;-2.29;-6.00
19340;HTU21D;9804;52.350;6.684;2022-12-18T00:14:09;-2.19;-6.00
19340;HTU21D;9804;52.350;6.684;2022-12-18T00:16:36;-2.24;-6.00
19340;HTU21D;9804;52.350;6.684;2022-12-18T00:19:03;-2.23;-6.00
19340;HTU21D;9804;52.350;6.684;2022-12-18T00:21:30;-2.27;-6.00
19340;HTU21D;9804;52.350;6.684;2022-12-18T00:23:56;-2.27;-6.00
19340;HTU21D;9804;52.350;6.684;2022-12-18T00:26:32;-2.42;-6.00
19340;HTU21D;9804;52.350;6.684;2022-12-18T00:28:59;-2.38;-6.00
19340;HTU21D;9804;52.350;6.684;2022-12-18T00:31:25;-2.44;-6.00
19340;HTU21D;9804;52.350;6.684;2022-12-18T00:33:51;-2.68;-6.00
19340;HTU21D;9804;52.350;6.684;2022-12-18T00:36:18;-2.49;-6.00
19340;HTU21D;9804;52.350;6.684;2022-12-18T00:38:45;-2.56;-6.00
19340;HTU21D;9804;52.350;6.684;2022-12-18T00:41:12;-2.62;-6.00
19340;HTU21D;9804;52.350;6.684;2022-12-18T00:43:39;-2.81;-6.00
19340;HTU21D;9804;52.350;6.684;2022-12-18T00:46:05;-2.88;-6.00
19340;HTU21D;9804;52.350;6.684;2022-12-18T00:48:30;-2.92;-6.00
19340;HTU21D;9804;52.350;6.684;2022-12-18T00:50:56;-2.88;-6.00
19340;HTU21D;9804;52.350;6.684;2022-12-18T00:53:21;-2.88;-6.00
19340;HTU21D;9804;52.350;6.684;2022-12-18T00:55:47;-2.94;-6.00
19340;HTU21D;9804;52.350;6.684;2022-12-18T00:58:14;-2.96;-6.00
19340;HTU21D;9804;52.350;6.684;2022-12-18T01:00:40;-3.10;-6.00
19340;HTU21D;9804;52.350;6.684;2022-12-18T01:03:06;-3.00;-6.00
19340;HTU21D;9804;52.350;6.684;2022-12-18T01:05:32;-3.01;-6.00
19340;HTU21D;9804;52.350;6.684;2022-12-18T01:07:57;-3.05;-6.00
19340;HTU21D;9804;52.350;6.684;2022-12-18T01:10:24;-3.05;-6.00
19340;HTU21D;9804;52.350;6.684;2022-12-18T01:12:50;-3.07;-6.00
19340;HTU21D;9804;52.350;6.684;2022-12-18T01:15:16;-3.09;-6.00
19340;HTU21D;9804;52.350;6.684;2022-12-18T01:17:42;-3.24;-6.00
19340;HTU21D;9804;52.350;6.684;2022-12-18T01:20:09;-3.28;-6.00
19340;HTU21D;9804;52.350;6.684;2022-12-18T01:22:35;-3.21;-6.00
19340;HTU21D;9804;52.350;6.684;2022-12-18T01:25:01;-3.34;-6.00
19340;HTU21D;9804;52.350;6.684;2022-12-18T01:27:26;-3.19;-6.00
19340;HTU21D;9804;52.350;6.684;2022-12-18T01:29:51;-3.20;-6.00
19340;HTU21D;9804;52.350;6.684;2022-12-18T01:32:17;-3.21;-6.00
19340;HTU21D;9804;52.350;6.684;2022-12-18T01:34:43;-3.24;-6.00
19340;HTU21D;9804;52.350;6.684;2022-12-18T01:37:08;-3.24;-6.00
19340;HTU21D;9804;52.350;6.684;2022-12-18T01:39:33;-3.51;-6.00
19340;HTU21D;9804;52.350;6.684;2022-12-18T01:42:00;-3.54;-6.00
19340;HTU21D;9804;52.350;6.684;2022-12-18T01:47:34;-3.50;-6.00
19340;HTU21D;9804;52.350;6.684;2022-12-18T01:50:42;-3.53;-6.00
19340;HTU21D;9804;52.350;6.684;2022-12-18T01:53:06;-3.51;-6.00
19340;HTU21D;9804;52.350;6.684;2022-12-18T01:55:36;-3.43;-6.00
19340;HTU21D;9804;52.350;6.684;2022-12-18T01:58:03;-3.42;-6.00
19340;HTU21D;9804;52.350;6.684;2022-12-18T02:00:29;-3.48;-6.00
19340;HTU21D;9804;52.350;6.684;2022-12-18T02:02:55;-3.53;-6.00
19340;HTU21D;9804;52.350;6.684;2022-12-18T02:11:08;-3.72;-6.00
19340;HTU21D;9804;52.350;6.684;2022-12-18T02:13:41;-3.69;-6.00
19340;HTU21D;9804;52.350;6.684;2022-12-18T02:16:24;-3.77;-6.00
19340;HTU21D;9804;52.350;6.684;2022-12-18T02:19:00;-3.77;-6.00
19340;HTU21D;9804;52.350;6.684;2022-12-18T02:21:47;-3.84;-6.00
19340;HTU21D;9804;52.350;6.684;2022-12-18T02:24:32;-3.92;-6.00
19340;HTU21D;9804;52.350;6.684;2022-12-18T02:27:02;-4.04;-6.00
19340;HTU21D;9804;52.350;6.684;2022-12-18T02:29:35;-4.08;-6.00
19340;HTU21D;9804;52.350;6.684;2022-12-18T02:32:04;-4.12;-6.00
19340;HTU21D;9804;52.350;6.684;2022-12-18T02:34:33;-4.28;-6.00
19340;HTU21D;9804;52.350;6.684;2022-12-18T02:37:02;-4.25;-6.00
19340;HTU21D;9804;52.350;6.684;2022-12-18T02:39:31;-4.11;-6.00
19340;HTU21D;9804;52.350;6.684;2022-12-18T02:41:58;-3.99;-6.00
19340;HTU21D;9804;52.350;6.684;2022-12-18T02:44:24;-3.90;-6.00
19340;HTU21D;9804;52.350;6.684;2022-12-18T02:46:51;-3.92;-6.00
19340;HTU21D;9804;52.350;6.684;2022-12-18T02:51:56;-3.99;-6.00
19340;HTU21D;9804;52.350;6.684;2022-12-18T02:57:07;-4.07;-6.00
19340;HTU21D;9804;52.350;6.684;2022-12-18T02:59:47;-4.08;-6.00
19340;HTU21D;9804;52.350;6.684;2022-12-18T03:02:20;-4.16;-6.00
19340;HTU21D;9804;52.350;6.684;2022-12-18T03:04:51;-4.22;-6.00
19340;HTU21D;9804;52.350;6.684;2022-12-18T03:07:26;-4.27;-6.00
19340;HTU21D;9804;52.350;6.684;2022-12-18T03:09:53;-4.32;-6.00
19340;HTU21D;9804;52.350;6.684;2022-12-18T03:12:24;-4.34;-6.00
19340;HTU21D;9804;52.350;6.684;2022-12-18T03:15:17;-4.32;-6.00
19340;HTU21D;9804;52.350;6.684;2022-12-18T03:17:47;-4.32;-6.00
19340;HTU21D;9804;52.350;6.684;2022-12-18T03:20:17;-4.36;-6.00
19340;HTU21D;9804;52.350;6.684;2022-12-18T03:22:46;-4.28;-6.00
19340;HTU21D;9804;52.350;6.684;2022-12-18T03:25:14;-4.30;-6.00
19340;HTU21D;9804;52.350;6.684;2022-12-18T03:27:54;-4.29;-6.00
19340;HTU21D;9804;52.350;6.684;2022-12-18T03:30:21;-4.29;-6.00
19340;HTU21D;9804;52.350;6.684;2022-12-18T03:33:08;-4.28;-6.00
19340;HTU21D;9804;52.350;6.684;2022-12-18T03:35:39;-4.26;-6.00
19340;HTU21D;9804;52.350;6.684;2022-12-18T03:38:06;-4.22;-6.00
19340;HTU21D;9804;52.350;6.684;2022-12-18T03:40:52;-4.21;-6.00
19340;HTU21D;9804;52.350;6.684;2022-12-18T03:46:05;-4.30;-6.00
19340;HTU21D;9804;52.350;6.684;2022-12-18T03:48:38;-4.34;-6.00
19340;HTU21D;9804;52.350;6.684;2022-12-18T03:51:12;-4.24;-6.00
19340;HTU21D;9804;52.350;6.684;2022-12-18T03:56:25;-4.16;-6.00
19340;HTU21D;9804;52.350;6.684;2022-12-18T03:58:52;-4.16;-6.00
19340;HTU21D;9804;52.350;6.684;2022-12-18T04:01:20;-4.13;-6.00
19340;HTU21D;9804;52.350;6.684;2022-12-18T04:03:49;-4.15;-6.00
19340;HTU21D;9804;52.350;6.684;2022-12-18T04:06:15;-4.25;-6.00
19340;HTU21D;9804;52.350;6.684;2022-12-18T04:08:41;-4.25;-6.00
19340;HTU21D;9804;52.350;6.684;2022-12-18T04:11:07;-4.28;-6.00
19340;HTU21D;9804;52.350;6.684;2022-12-18T04:13:35;-4.32;-6.00
19340;HTU21D;9804;52.350;6.684;2022-12-18T04:16:01;-4.39;-6.00
19340;HTU21D;9804;52.350;6.684;2022-12-18T04:18:26;-4.40;-6.00
19340;HTU21D;9804;52.350;6.684;2022-12-18T04:20:52;-4.44;-6.00
19340;HTU21D;9804;52.350;6.684;2022-12-18T04:23:17;-4.48;-6.00
19340;HTU21D;9804;52.350;6.684;2022-12-18T04:25:42;-4.54;-6.00
19340;HTU21D;9804;52.350;6.684;2022-12-18T04:28:08;-4.64;-6.00
19340;HTU21D;9804;52.350;6.684;2022-12-18T04:30:33;-4.73;-6.00
19340;HTU21D;9804;52.350;6.684;2022-12-18T04:32:58;-4.76;-6.00
19340;HTU21D;9804;52.350;6.684;2022-12-18T04:35:24;-4.79;-6.00
19340;HTU21D;9804;52.350;6.684;2022-12-18T04:37:49;-4.87;-6.00
19340;HTU21D;9804;52.350;6.684;2022-12-18T04:40:14;-4.93;-6.00
19340;HTU21D;9804;52.350;6.684;2022-12-18T04:42:40;-4.95;-6.00
19340;HTU21D;9804;52.350;6.684;2022-12-18T04:45:06;-4.96;-6.00
19340;HTU21D;9804;52.350;6.684;2022-12-18T04:47:32;-4.96;-6.00
19340;HTU21D;9804;52.350;6.684;2022-12-18T04:49:57;-5.04;-6.00
19340;HTU21D;9804;52.350;6.684;2022-12-18T04:52:23;-5.04;-6.00
19340;HTU21D;9804;52.350;6.684;2022-12-18T04:54:48;-5.08;-6.00
19340;HTU21D;9804;52.350;6.684;2022-12-18T04:57:13;-5.07;-6.00
19340;HTU21D;9804;52.350;6.684;2022-12-18T04:59:39;-5.04;-6.00
19340;HTU21D;9804;52.350;6.684;2022-12-18T05:02:04;-5.02;-6.00
19340;HTU21D;9804;52.350;6.684;2022-12-18T05:04:29;-4.96;-6.00
19340;HTU21D;9804;52.350;6.684;2022-12-18T05:06:55;-4.94;-6.00
19340;HTU21D;9804;52.350;6.684;2022-12-18T05:09:20;-4.95;-6.00
19340;HTU21D;9804;52.350;6.684;2022-12-18T05:11:46;-4.97;-6.00
19340;HTU21D;9804;52.350;6.684;2022-12-18T05:14:12;-5.10;-6.00
19340;HTU21D;9804;52.350;6.684;2022-12-18T05:16:37;-5.10;-6.00
19340;HTU21D;9804;52.350;6.684;2022-12-18T05:19:02;-5.20;-6.00
19340;HTU21D;9804;52.350;6.684;2022-12-18T05:21:28;-5.08;-6.00
19340;HTU21D;9804;52.350;6.684;2022-12-18T05:23:53;-5.10;-6.00
19340;HTU21D;9804;52.350;6.684;2022-12-18T05:26:19;-5.12;-6.00
19340;HTU21D;9804;52.350;6.684;2022-12-18T05:28:44;-5.12;-6.00
19340;HTU21D;9804;52.350;6.684;2022-12-18T05:31:10;-5.18;-6.00
19340;HTU21D;9804;52.350;6.684;2022-12-18T05:33:35;-5.27;-6.00
19340;HTU21D;9804;52.350;6.684;2022-12-18T05:36:02;-5.37;-6.00
19340;HTU21D;9804;52.350;6.684;2022-12-18T05:38:28;-5.35;-6.00
19340;HTU21D;9804;52.350;6.684;2022-12-18T05:40:54;-5.40;-6.00
19340;HTU21D;9804;52.350;6.684;2022-12-18T05:43:21;-5.35;-6.00
19340;HTU21D;9804;52.350;6.684;2022-12-18T05:45:47;-5.44;-6.00
19340;HTU21D;9804;52.350;6.684;2022-12-18T05:48:13;-5.43;-6.00
19340;HTU21D;9804;52.350;6.684;2022-12-18T05:50:41;-5.47;-6.00
19340;HTU21D;9804;52.350;6.684;2022-12-18T05:53:07;-5.54;-6.00
19340;HTU21D;9804;52.350;6.684;2022-12-18T05:55:36;-5.46;-6.00
19340;HTU21D;9804;52.350;6.684;2022-12-18T05:58:03;-5.46;-6.00
19340;HTU21D;9804;52.350;6.684;2022-12-18T06:00:30;-5.45;-6.00
19340;HTU21D;9804;52.350;6.684;2022-12-18T06:02:55;-5.43;-6.00
19340;HTU21D;9804;52.350;6.684;2022-12-18T06:05:21;-5.43;-6.00
19340;HTU21D;9804;52.350;6.684;2022-12-18T06:07:46;-5.42;-6.00
19340;HTU21D;9804;52.350;6.684;2022-12-18T06:10:11;-5.48;-6.00
19340;HTU21D;9804;52.350;6.684;2022-12-18T06:12:37;-5.47;-6.00
19340;HTU21D;9804;52.350;6.684;2022-12-18T06:15:03;-5.49;-6.00
19340;HTU21D;9804;52.350;6.684;2022-12-18T06:17:32;-5.48;-6.00
19340;HTU21D;9804;52.350;6.684;2022-12-18T06:19:58;-5.47;-6.00
19340;HTU21D;9804;52.350;6.684;2022-12-18T06:22:23;-5.52;-6.00
19340;HTU21D;9804;52.350;6.684;2022-12-18T06:24:49;-5.57;-6.00
19340;HTU21D;9804;52.350;6.684;2022-12-18T06:27:14;-5.68;-6.00
19340;HTU21D;9804;52.350;6.684;2022-12-18T06:29:39;-5.68;-6.00
19340;HTU21D;9804;52.350;6.684;2022-12-18T06:32:05;-5.64;-6.00
19340;HTU21D;9804;52.350;6.684;2022-12-18T06:34:30;-5.71;-6.00
19340;HTU21D;9804;52.350;6.684;2022-12-18T06:36:55;-5.69;-6.00
19340;HTU21D;9804;52.350;6.684;2022-12-18T06:39:21;-5.62;-6.00
19340;HTU21D;9804;52.350;6.684;2022-12-18T06:41:46;-5.64;-6.00
19340;HTU21D;9804;52.350;6.684;2022-12-18T06:44:11;-5.68;-6.00
19340;HTU21D;9804;52.350;6.684;2022-12-18T06:46:37;-5.63;-6.00
19340;HTU21D;9804;52.350;6.684;2022-12-18T06:49:03;-5.62;-6.00
19340;HTU21D;9804;52.350;6.684;2022-12-18T06:51:28;-5.69;-6.00
19340;HTU21D;9804;52.350;6.684;2022-12-18T06:53:54;-5.69;-6.00
19340;HTU21D;9804;52.350;6.684;2022-12-18T06:56:19;-5.71;-6.00
19340;HTU21D;9804;52.350;6.684;2022-12-18T06:58:45;-5.60;-6.00
19340;HTU21D;9804;52.350;6.684;2022-12-18T07:01:11;-5.45;-6.00
19340;HTU21D;9804;52.350;6.684;2022-12-18T07:03:38;-5.38;-6.00
19340;HTU21D;9804;52.350;6.684;2022-12-18T07:06:04;-5.46;-6.00
19340;HTU21D;9804;52.350;6.684;2022-12-18T07:08:31;-5.37;-6.00
19340;HTU21D;9804;52.350;6.684;2022-12-18T07:10:56;-5.16;-6.00
19340;HTU21D;9804;52.350;6.684;2022-12-18T07:13:22;-5.08;-6.00
19340;HTU21D;9804;52.350;6.684;2022-12-18T07:15:47;-4.95;-6.00
19340;HTU21D;9804;52.350;6.684;2022-12-18T07:18:12;-5.05;-6.00
19340;HTU21D;9804;52.350;6.684;2022-12-18T07:20:38;-4.94;-6.00
19340;HTU21D;9804;52.350;6.684;2022-12-18T07:23:04;-4.86;-6.00
19340;HTU21D;9804;52.350;6.684;2022-12-18T07:25:33;-4.74;-6.00
19340;HTU21D;9804;52.350;6.684;2022-12-18T07:27:58;-4.67;-6.00
19340;HTU21D;9804;52.350;6.684;2022-12-18T07:30:24;-4.60;-6.00
19340;HTU21D;9804;52.350;6.684;2022-12-18T07:32:49;-4.60;-6.00
19340;HTU21D;9804;52.350;6.684;2022-12-18T07:35:14;-4.61;-6.00
19340;HTU21D;9804;52.350;6.684;2022-12-18T07:37:40;-4.55;-6.00
19340;HTU21D;9804;52.350;6.684;2022-12-18T07:40:06;-4.43;-6.00
19340;HTU21D;9804;52.350;6.684;2022-12-18T07:42:31;-4.39;-6.00
19340;HTU21D;9804;52.350;6.684;2022-12-18T07:45:00;-4.29;-6.00
19340;HTU21D;9804;52.350;6.684;2022-12-18T07:47:26;-4.21;-6.00
19340;HTU21D;9804;52.350;6.684;2022-12-18T07:49:52;-4.36;-6.00
19340;HTU21D;9804;52.350;6.684;2022-12-18T07:52:17;-4.26;-6.00
19340;HTU21D;9804;52.350;6.684;2022-12-18T07:54:43;-4.36;-6.00
19340;HTU21D;9804;52.350;6.684;2022-12-18T07:57:08;-4.30;-6.00
19340;HTU21D;9804;52.350;6.684;2022-12-18T07:59:34;-4.20;-6.00
19340;HTU21D;9804;52.350;6.684;2022-12-18T08:01:59;-4.21;-6.00
19340;HTU21D;9804;52.350;6.684;2022-12-18T08:04:25;-4.10;-6.00
19340;HTU21D;9804;52.350;6.684;2022-12-18T08:06:50;-4.24;-6.00
19340;HTU21D;9804;52.350;6.684;2022-12-18T08:09:16;-4.21;-6.00
19340;HTU21D;9804;52.350;6.684;2022-12-18T08:11:41;-4.13;-6.00
19340;HTU21D;9804;52.350;6.684;2022-12-18T08:14:07;-3.94;-6.00
19340;HTU21D;9804;52.350;6.684;2022-12-18T08:16:32;-3.97;-6.00
19340;HTU21D;9804;52.350;6.684;2022-12-18T08:18:57;-4.00;-6.00
19340;HTU21D;9804;52.350;6.684;2022-12-18T08:21:26;-3.93;-6.00
19340;HTU21D;9804;52.350;6.684;2022-12-18T08:23:53;-3.98;-6.00
19340;HTU21D;9804;52.350;6.684;2022-12-18T08:26:19;-3.76;-6.00
19340;HTU21D;9804;52.350;6.684;2022-12-18T08:28:44;-3.78;-6.00
19340;HTU21D;9804;52.350;6.684;2022-12-18T08:31:10;-3.70;-6.00
19340;HTU21D;9804;52.350;6.684;2022-12-18T08:33:37;-3.68;-6.00
19340;HTU21D;9804;52.350;6.684;2022-12-18T08:36:03;-3.57;-6.00
19340;HTU21D;9804;52.350;6.684;2022-12-18T08:38:29;-3.60;-6.00
19340;HTU21D;9804;52.350;6.684;2022-12-18T08:41:02;-3.55;-6.00
19340;HTU21D;9804;52.350;6.684;2022-12-18T08:43:28;-3.53;-6.00
19340;HTU21D;9804;52.350;6.684;2022-12-18T08:46:12;-3.34;-6.00
19340;HTU21D;9804;52.350;6.684;2022-12-18T08:48:38;-3.37;-6.00
19340;HTU21D;9804;52.350;6.684;2022-12-18T08:51:03;-3.20;-6.00
19340;HTU21D;9804;52.350;6.684;2022-12-18T08:53:28;-3.23;-6.00
19340;HTU21D;9804;52.350;6.684;2022-12-18T08:55:56;-3.18;-6.00
19340;HTU21D;9804;52.350;6.684;2022-12-18T08:58:21;-3.06;-6.00
19340;HTU21D;9804;52.350;6.684;2022-12-18T09:00:47;-3.02;-6.00
19340;HTU21D;9804;52.350;6.684;2022-12-18T09:03:17;-2.81;-6.00
19340;HTU21D;9804;52.350;6.684;2022-12-18T09:05:43;-2.87;-6.00
19340;HTU21D;9804;52.350;6.684;2022-12-18T09:08:10;-2.66;-6.00
19340;HTU21D;9804;52.350;6.684;2022-12-18T09:10:42;-2.61;-6.00
19340;HTU21D;9804;52.350;6.684;2022-12-18T09:13:10;-2.39;-6.00
19340;HTU21D;9804;52.350;6.684;2022-12-18T09:15:41;-2.38;-6.00
19340;HTU21D;9804;52.350;6.684;2022-12-18T09:18:07;-2.31;-6.00
19340;HTU21D;9804;52.350;6.684;2022-12-18T09:20:32;-2.22;-6.00
19340;HTU21D;9804;52.350;6.684;2022-12-18T09:22:57;-2.04;-6.00
19340;HTU21D;9804;52.350;6.684;2022-12-18T09:25:23;-2.02;-6.00
19340;HTU21D;9804;52.350;6.684;2022-12-18T09:27:48;-1.99;-6.00
19340;HTU21D;9804;52.350;6.684;2022-12-18T09:30:13;-1.87;-6.00
19340;HTU21D;9804;52.350;6.684;2022-12-18T09:32:39;-1.67;-6.00
19340;HTU21D;9804;52.350;6.684;2022-12-18T09:35:04;-1.62;-6.00
19340;HTU21D;9804;52.350;6.684;2022-12-18T09:37:30;-1.55;-6.00
19340;HTU21D;9804;52.350;6.684;2022-12-18T09:39:55;-1.32;-6.00
19340;HTU21D;9804;52.350;6.684;2022-12-18T09:42:22;-1.21;-6.00
19340;HTU21D;9804;52.350;6.684;2022-12-18T09:44:53;-1.27;-6.00
19340;HTU21D;9804;52.350;6.684;2022-12-18T09:47:25;-1.21;-6.00
19340;HTU21D;9804;52.350;6.684;2022-12-18T09:50:25;-0.99;-6.00
19340;HTU21D;9804;52.350;6.684;2022-12-18T09:52:55;-1.01;-6.00
19340;HTU21D;9804;52.350;6.684;2022-12-18T09:55:32;-0.87;-6.00
19340;HTU21D;9804;52.350;6.684;2022-12-18T10:00:36;-0.62;-6.00
19340;HTU21D;9804;52.350;6.684;2022-12-18T10:03:09;-0.70;-6.00
19340;HTU21D;9804;52.350;6.684;2022-12-18T10:05:54;-0.60;-6.00
19340;HTU21D;9804;52.350;6.684;2022-12-18T10:08:33;-0.67;-6.00
19340;HTU21D;9804;52.350;6.684;2022-12-18T10:13:55;-0.54;-6.00
19340;HTU21D;9804;52.350;6.684;2022-12-18T10:16:35;-0.50;-6.00
19340;HTU21D;9804;52.350;6.684;2022-12-18T10:19:29;-0.46;-6.00
19340;HTU21D;9804;52.350;6.684;2022-12-18T10:22:19;-0.31;-6.00
19340;HTU21D;9804;52.350;6.684;2022-12-18T10:25:14;-0.32;-6.00
19340;HTU21D;9804;52.350;6.684;2022-12-18T10:27:40;-0.28;-6.00
19340;HTU21D;9804;52.350;6.684;2022-12-18T10:30:20;-0.22;-6.00
19340;HTU21D;9804;52.350;6.684;2022-12-18T10:32:46;-0.10;-6.00
19340;HTU21D;9804;52.350;6.684;2022-12-18T10:35:30;-0.13;-6.00
19340;HTU21D;9804;52.350;6.684;2022-12-18T10:41:05;0.16;-6.00
19340;HTU21D;9804;52.350;6.684;2022-12-18T10:43:35;0.07;-6.00
19340;HTU21D;9804;52.350;6.684;2022-12-18T10:48:36;0.20;-6.00
19340;HTU21D;9804;52.350;6.684;2022-12-18T10:51:02;0.29;-6.00
19340;HTU21D;9804;52.350;6.684;2022-12-18T10:53:30;0.35;-6.00
19340;HTU21D;9804;52.350;6.684;2022-12-18T10:55:58;0.54;-6.00
19340;HTU21D;9804;52.350;6.684;2022-12-18T11:01:14;0.63;-6.00
19340;HTU21D;9804;52.350;6.684;2022-12-18T11:03:43;0.58;-6.00
19340;HTU21D;9804;52.350;6.684;2022-12-18T11:06:17;0.88;-6.00
19340;HTU21D;9804;52.350;6.684;2022-12-18T11:08:57;0.79;-6.00
19340;HTU21D;9804;52.350;6.684;2022-12-18T11:11:24;0.79;-6.00
19340;HTU21D;9804;52.350;6.684;2022-12-18T11:14:14;1.05;-6.00
19340;HTU21D;9804;52.350;6.684;2022-12-18T11:16:46;0.96;-6.00
19340;HTU21D;9804;52.350;6.684;2022-12-18T11:19:33;1.07;-6.00
19340;HTU21D;9804;52.350;6.684;2022-12-18T11:22:00;1.14;-6.00
19340;HTU21D;9804;52.350;6.684;2022-12-18T11:24:32;1.28;-6.00
19340;HTU21D;9804;52.350;6.684;2022-12-18T11:27:01;1.27;-6.00
19340;HTU21D;9804;52.350;6.684;2022-12-18T11:29:38;1.26;-6.00
19340;HTU21D;9804;52.350;6.684;2022-12-18T11:34:58;1.19;-6.00
19340;HTU21D;9804;52.350;6.684;2022-12-18T11:37:24;1.28;-6.00
19340;HTU21D;9804;52.350;6.684;2022-12-18T11:40:06;1.34;-6.00
19340;HTU21D;9804;52.350;6.684;2022-12-18T11:42:52;1.37;-6.00
19340;HTU21D;9804;52.350;6.684;2022-12-18T11:45:30;1.47;-6.00
19340;HTU21D;9804;52.350;6.684;2022-12-18T11:48:05;1.51;-6.00
19340;HTU21D;9804;52.350;6.684;2022-12-18T11:50:52;1.42;-6.00
19340;HTU21D;9804;52.350;6.684;2022-12-18T11:53:19;1.37;-6.00
19340;HTU21D;9804;52.350;6.684;2022-12-18T12:01:15;1.61;-6.00
19340;HTU21D;9804;52.350;6.684;2022-12-18T12:06:49;1.57;-6.00
19340;HTU21D;9804;52.350;6.684;2022-12-18T12:15:45;1.88;-6.00
19340;HTU21D;9804;52.350;6.684;2022-12-18T12:21:05;1.94;-6.00
19340;HTU21D;9804;52.350;6.684;2022-12-18T12:26:27;1.88;-6.00
19340;HTU21D;9804;52.350;6.684;2022-12-18T12:31:55;2.03;-6.00
19340;HTU21D;9804;52.350;6.684;2022-12-18T12:34:26;2.02;-6.00
19340;HTU21D;9804;52.350;6.684;2022-12-18T12:39:30;2.10;-6.00
19340;HTU21D;9804;52.350;6.684;2022-12-18T12:41:57;2.17;-6.00
19340;HTU21D;9804;52.350;6.684;2022-12-18T12:44:49;2.10;-6.00
19340;HTU21D;9804;52.350;6.684;2022-12-18T12:47:22;1.97;-6.00
19340;HTU21D;9804;52.350;6.684;2022-12-18T12:49:49;2.07;-6.00
19340;HTU21D;9804;52.350;6.684;2022-12-18T12:52:27;2.25;-6.00
19340;HTU21D;9804;52.350;6.684;2022-12-18T12:54:54;1.96;-6.00
19340;HTU21D;9804;52.350;6.684;2022-12-18T12:57:24;2.06;-6.00
19340;HTU21D;9804;52.350;6.684;2022-12-18T13:02:39;2.31;-6.00
19340;HTU21D;9804;52.350;6.684;2022-12-18T13:08:03;2.11;-6.00
19340;HTU21D;9804;52.350;6.684;2022-12-18T13:10:37;2.15;-6.00
19340;HTU21D;9804;52.350;6.684;2022-12-18T13:13:05;2.34;-6.00
19340;HTU21D;9804;52.350;6.684;2022-12-18T13:18:33;2.22;-6.00
19340;HTU21D;9804;52.350;6.684;2022-12-18T13:25:50;2.38;-6.00
19340;HTU21D;9804;52.350;6.684;2022-12-18T13:28:20;2.41;-6.00
19340;HTU21D;9804;52.350;6.684;2022-12-18T13:40:59;2.42;-6.00
19340;HTU21D;9804;52.350;6.684;2022-12-18T13:43:30;2.35;-6.00
19340;HTU21D;9804;52.350;6.684;2022-12-18T13:46:03;2.36;-6.00
19340;HTU21D;9804;52.350;6.684;2022-12-18T13:48:34;2.32;-6.00
19340;HTU21D;9804;52.350;6.684;2022-12-18T13:51:09;2.07;-6.00
19340;HTU21D;9804;52.350;6.684;2022-12-18T13:56:22;2.32;-6.00
19340;HTU21D;9804;52.350;6.684;2022-12-18T13:59:11;2.17;-6.00
19340;HTU21D;9804;52.350;6.684;2022-12-18T14:04:23;2.25;-6.00
19340;HTU21D;9804;52.350;6.684;2022-12-18T14:06:51;2.14;-6.00
19340;HTU21D;9804;52.350;6.684;2022-12-18T14:09:44;2.19;-6.00
19340;HTU21D;9804;52.350;6.684;2022-12-18T14:12:30;2.17;-6.00
19340;HTU21D;9804;52.350;6.684;2022-12-18T14:15:20;2.15;-6.00
19340;HTU21D;9804;52.350;6.684;2022-12-18T14:17:47;2.20;-6.00
19340;HTU21D;9804;52.350;6.684;2022-12-18T14:20:15;2.20;-6.00
19340;HTU21D;9804;52.350;6.684;2022-12-18T14:22:45;2.22;-6.00
19340;HTU21D;9804;52.350;6.684;2022-12-18T14:27:53;2.22;-6.00
19340;HTU21D;9804;52.350;6.684;2022-12-18T14:30:26;2.23;-6.00
19340;HTU21D;9804;52.350;6.684;2022-12-18T14:33:06;2.28;-6.00
19340;HTU21D;9804;52.350;6.684;2022-12-18T14:35:39;2.20;-6.00
19340;HTU21D;9804;52.350;6.684;2022-12-18T14:38:19;2.21;-6.00
19340;HTU21D;9804;52.350;6.684;2022-12-18T14:40:46;2.10;-6.00
19340;HTU21D;9804;52.350;6.684;2022-12-18T14:43:12;2.21;-6.00
19340;HTU21D;9804;52.350;6.684;2022-12-18T14:48:07;2.06;-6.00
19340;HTU21D;9804;52.350;6.684;2022-12-18T14:50:33;2.14;-6.00
19340;HTU21D;9804;52.350;6.684;2022-12-18T14:52:59;2.06;-6.00
19340;HTU21D;9804;52.350;6.684;2022-12-18T14:55:24;1.97;-6.00
19340;HTU21D;9804;52.350;6.684;2022-12-18T14:57:55;2.12;-6.00
19340;HTU21D;9804;52.350;6.684;2022-12-18T15:00:23;2.01;-6.00
19340;HTU21D;9804;52.350;6.684;2022-12-18T15:02:54;2.14;-6.00
19340;HTU21D;9804;52.350;6.684;2022-12-18T15:05:25;2.06;-6.00
19340;HTU21D;9804;52.350;6.684;2022-12-18T15:07:54;1.98;-6.00
19340;HTU21D;9804;52.350;6.684;2022-12-18T15:10:23;1.97;-6.00
19340;HTU21D;9804;52.350;6.684;2022-12-18T15:13:05;2.07;-6.00
19340;HTU21D;9804;52.350;6.684;2022-12-18T15:18:05;2.09;-6.00
19340;HTU21D;9804;52.350;6.684;2022-12-18T15:23:30;1.99;-6.00
19340;HTU21D;9804;52.350;6.684;2022-12-18T15:28:36;1.95;-6.00
19340;HTU21D;9804;52.350;6.684;2022-12-18T15:31:03;1.93;-6.00
19340;HTU21D;9804;52.350;6.684;2022-12-18T15:33:40;1.93;-6.00
19340;HTU21D;9804;52.350;6.684;2022-12-18T15:36:11;2.10;-6.00
19340;HTU21D;9804;52.350;6.684;2022-12-18T15:38:37;1.98;-6.00
19340;HTU21D;9804;52.350;6.684;2022-12-18T15:41:02;2.06;-6.00
19340;HTU21D;9804;52.350;6.684;2022-12-18T15:43:29;1.97;-6.00
19340;HTU21D;9804;52.350;6.684;2022-12-18T15:46:06;2.00;-6.00
19340;HTU21D;9804;52.350;6.684;2022-12-18T15:48:33;2.09;-6.00
19340;HTU21D;9804;52.350;6.684;2022-12-18T15:50:59;2.09;-6.00
19340;HTU21D;9804;52.350;6.684;2022-12-18T15:53:29;2.03;-6.00
19340;HTU21D;9804;52.350;6.684;2022-12-18T15:55:55;2.08;-6.00
19340;HTU21D;9804;52.350;6.684;2022-12-18T15:58:38;2.05;-6.00
19340;HTU21D;9804;52.350;6.684;2022-12-18T16:01:04;2.13;-6.00
19340;HTU21D;9804;52.350;6.684;2022-12-18T16:03:29;1.98;-6.00
19340;HTU21D;9804;52.350;6.684;2022-12-18T16:05:55;2.11;-6.00
19340;HTU21D;9804;52.350;6.684;2022-12-18T16:08:20;2.16;-6.00
19340;HTU21D;9804;52.350;6.684;2022-12-18T16:10:46;2.13;-6.00
19340;HTU21D;9804;52.350;6.684;2022-12-18T16:13:20;2.16;-6.00
19340;HTU21D;9804;52.350;6.684;2022-12-18T16:15:45;2.14;-6.00
19340;HTU21D;9804;52.350;6.684;2022-12-18T16:18:11;1.96;-6.00
19340;HTU21D;9804;52.350;6.684;2022-12-18T16:20:38;1.87;-6.00
19340;HTU21D;9804;52.350;6.684;2022-12-18T16:23:03;2.15;-6.00
19340;HTU21D;9804;52.350;6.684;2022-12-18T16:25:29;1.96;-6.00
19340;HTU21D;9804;52.350;6.684;2022-12-18T16:27:56;1.95;-6.00
19340;HTU21D;9804;52.350;6.684;2022-12-18T16:30:23;2.07;-6.00
19340;HTU21D;9804;52.350;6.684;2022-12-18T16:32:50;2.22;-6.00
19340;HTU21D;9804;52.350;6.684;2022-12-18T16:35:16;2.17;-6.00
19340;HTU21D;9804;52.350;6.684;2022-12-18T16:37:42;2.15;-6.00
19340;HTU21D;9804;52.350;6.684;2022-12-18T16:40:10;2.12;-6.00
19340;HTU21D;9804;52.350;6.684;2022-12-18T16:42:37;2.11;-6.00
19340;HTU21D;9804;52.350;6.684;2022-12-18T16:45:03;2.01;-6.00
19340;HTU21D;9804;52.350;6.684;2022-12-18T16:47:29;2.08;-6.00
19340;HTU21D;9804;52.350;6.684;2022-12-18T16:49:54;2.17;-6.00
19340;HTU21D;9804;52.350;6.684;2022-12-18T16:52:20;2.20;-6.00
19340;HTU21D;9804;52.350;6.684;2022-12-18T16:54:46;2.22;-6.00
19340;HTU21D;9804;52.350;6.684;2022-12-18T16:57:13;2.19;-6.00
19340;HTU21D;9804;52.350;6.684;2022-12-18T16:59:39;2.17;-6.00
19340;HTU21D;9804;52.350;6.684;2022-12-18T17:02:05;2.24;-6.00
19340;HTU21D;9804;52.350;6.684;2022-12-18T17:04:31;2.32;-6.00
19340;HTU21D;9804;52.350;6.684;2022-12-18T17:06:56;2.14;-6.00
19340;HTU21D;9804;52.350;6.684;2022-12-18T17:09:21;2.30;-6.00
19340;HTU21D;9804;52.350;6.684;2022-12-18T17:11:50;2.26;-6.00
19340;HTU21D;9804;52.350;6.684;2022-12-18T17:14:18;2.21;-6.00
19340;HTU21D;9804;52.350;6.684;2022-12-18T17:16:44;2.21;-6.00
19340;HTU21D;9804;52.350;6.684;2022-12-18T17:19:10;2.22;-6.00
19340;HTU21D;9804;52.350;6.684;2022-12-18T17:21:36;2.19;-6.00
19340;HTU21D;9804;52.350;6.684;2022-12-18T17:24:02;2.25;-6.00
19340;HTU21D;9804;52.350;6.684;2022-12-18T17:26:28;2.25;-6.00
19340;HTU21D;9804;52.350;6.684;2022-12-18T17:28:57;2.30;-6.00
19340;HTU21D;9804;52.350;6.684;2022-12-18T17:31:25;2.28;-6.00